createdAt,value
2018-10-12T00:02:14.656Z,86.69
2018-10-12T00:04:42.950Z,86.73
2018-10-12T00:07:11.285Z,86.81
2018-10-12T00:09:39.553Z,87.14
2018-10-12T00:12:07.841Z,87.63
2018-10-12T00:14:36.213Z,87.53
2018-10-12T00:17:04.530Z,87.00
2018-10-12T00:19:32.804Z,86.34
2018-10-12T00:22:01.134Z,86.51
2018-10-12T00:24:29.393Z,87.06
2018-10-12T00:26:57.786Z,86.75
2018-10-12T00:29:26.056Z,86.83
2018-10-12T00:31:54.346Z,86.01
2018-10-12T00:34:22.630Z,86.36
2018-10-12T00:36:50.925Z,86.26
2018-10-12T00:39:19.190Z,86.79
2018-10-12T00:41:47.530Z,86.95
2018-10-12T00:44:15.783Z,86.67
2018-10-12T00:46:50.343Z,86.27
2018-10-12T00:49:18.621Z,86.17
2018-10-12T00:51:46.933Z,86.07
2018-10-12T00:54:15.201Z,85.73
2018-10-12T00:56:43.502Z,86.04
2018-10-12T00:59:11.765Z,85.73
2018-10-12T01:01:40.079Z,85.78
2018-10-12T01:04:08.341Z,86.01
2018-10-12T01:06:36.718Z,85.83
2018-10-12T01:09:05.201Z,85.47
2018-10-12T01:11:33.601Z,84.98
2018-10-12T01:14:01.878Z,85.12
2018-10-12T01:16:30.210Z,85.48
2018-10-12T01:18:58.457Z,86.23
2018-10-12T01:21:26.769Z,85.96
2018-10-12T01:23:55.042Z,86.04
2018-10-12T01:26:23.387Z,85.01
2018-10-12T01:28:55.853Z,85.42
2018-10-12T01:31:24.772Z,85.49
2018-10-12T01:33:53.210Z,85.53
2018-10-12T01:36:21.677Z,85.42
2018-10-12T01:38:50.177Z,85.38
2018-10-12T01:41:18.490Z,85.47
2018-10-12T01:43:46.835Z,85.85
2018-10-12T01:46:15.143Z,86.05
2018-10-12T01:48:43.505Z,85.98
2018-10-12T01:51:11.833Z,85.96
2018-10-12T01:53:40.117Z,85.14
2018-10-12T01:56:08.410Z,85.42
2018-10-12T01:58:36.678Z,85.80
2018-10-12T02:01:05.017Z,85.50
2018-10-12T02:03:33.316Z,85.47
2018-10-12T02:06:01.581Z,86.29
2018-10-12T02:08:29.873Z,86.02
2018-10-12T02:10:58.146Z,85.32
2018-10-12T02:13:26.467Z,85.32
2018-10-12T02:15:54.730Z,84.88
2018-10-12T02:18:23.036Z,85.75
2018-10-12T02:23:25.709Z,86.25
2018-10-12T02:25:54.032Z,85.07
2018-10-12T02:28:22.311Z,85.21
2018-10-12T02:30:50.624Z,85.17
2018-10-12T02:33:18.893Z,84.60
2018-10-12T02:35:47.205Z,85.04
2018-10-12T02:38:15.494Z,85.25
2018-10-12T02:40:43.814Z,85.21
2018-10-12T02:43:12.113Z,85.13
2018-10-12T02:45:40.417Z,85.37
2018-10-12T02:48:08.711Z,84.60
2018-10-12T02:50:37.030Z,84.77
2018-10-12T02:53:05.711Z,84.48
2018-10-12T02:55:34.021Z,84.33
2018-10-12T02:58:02.343Z,85.06
2018-10-12T03:00:30.617Z,85.58
2018-10-12T03:02:58.889Z,86.24
2018-10-12T03:05:27.181Z,85.36
2018-10-12T03:07:55.509Z,85.11
2018-10-12T03:10:23.823Z,85.83
2018-10-12T03:12:52.090Z,85.60
2018-10-12T03:15:20.393Z,85.92
2018-10-12T03:17:48.687Z,86.04
2018-10-12T03:20:16.980Z,86.49
2018-10-12T03:22:45.261Z,86.41
2018-10-12T03:25:13.545Z,86.65
2018-10-12T03:27:53.230Z,87.01
2018-10-12T03:30:21.591Z,87.77
2018-10-12T03:32:50.841Z,87.65
2018-10-12T03:35:19.326Z,88.07
2018-10-12T03:37:47.662Z,88.46
2018-10-12T03:40:16.008Z,89.28
2018-10-12T03:42:44.390Z,89.73
2018-10-12T03:45:12.696Z,89.27
2018-10-12T03:47:41.058Z,89.74
2018-10-12T03:50:09.370Z,89.84
2018-10-12T03:52:37.698Z,89.80
2018-10-12T03:55:12.573Z,89.25
2018-10-12T03:57:40.858Z,89.08
2018-10-12T04:00:09.128Z,89.59
2018-10-12T04:02:37.443Z,89.88
2018-10-12T04:05:05.989Z,89.94
2018-10-12T04:07:34.300Z,89.87
2018-10-12T04:10:02.673Z,89.46
2018-10-12T04:12:30.981Z,89.35
2018-10-12T04:14:59.295Z,89.96
2018-10-12T04:17:27.603Z,89.82
2018-10-12T04:19:55.889Z,89.96
2018-10-12T04:22:25.820Z,90.06
2018-10-12T04:24:54.192Z,90.91
2018-10-12T04:27:22.808Z,91.44
2018-10-12T04:29:51.289Z,91.11
2018-10-12T04:32:19.631Z,90.47
2018-10-12T04:34:48.425Z,90.22
2018-10-12T04:37:17.160Z,89.79
2018-10-12T04:41:07.613Z,89.53
2018-10-12T04:43:36.125Z,90.32
2018-10-12T04:46:06.649Z,89.78
2018-10-12T04:48:36.004Z,90.30
2018-10-12T04:51:05.553Z,89.92
2018-10-12T04:53:34.056Z,90.06
2018-10-12T04:56:02.555Z,90.11
2018-10-12T04:58:31.104Z,89.66
2018-10-12T05:00:59.496Z,90.45
2018-10-12T05:03:27.879Z,90.76
2018-10-12T05:05:56.243Z,91.20
2018-10-12T05:08:24.675Z,91.48
2018-10-12T05:10:53.043Z,90.68
2018-10-12T05:13:21.415Z,90.75
2018-10-12T05:15:49.860Z,90.67
2018-10-12T05:18:18.221Z,89.79
2018-10-12T05:20:46.592Z,89.88
2018-10-12T05:23:15.019Z,90.92
2018-10-12T05:25:43.571Z,90.49
2018-10-12T05:28:12.639Z,90.33
2018-10-12T05:30:42.829Z,90.31
2018-10-12T05:33:11.828Z,90.07
2018-10-12T05:35:40.349Z,90.59
2018-10-12T05:38:08.794Z,90.78
2018-10-12T05:40:37.338Z,90.09
2018-10-12T05:43:06.333Z,89.69
2018-10-12T05:45:35.194Z,90.17
2018-10-12T05:48:15.135Z,90.04
2018-10-12T05:50:43.586Z,89.51
2018-10-12T05:53:12.049Z,89.45
2018-10-12T05:55:40.498Z,89.66
2018-10-12T05:58:08.851Z,89.43
2018-10-12T06:00:37.224Z,89.83
2018-10-12T06:03:05.571Z,89.83
2018-10-12T06:05:33.984Z,89.69
2018-10-12T06:08:02.310Z,90.09
2018-10-12T06:10:30.983Z,89.43
2018-10-12T06:12:59.414Z,89.47
2018-10-12T06:15:27.824Z,89.63
2018-10-12T06:17:56.196Z,89.43
2018-10-12T06:20:24.510Z,89.29
2018-10-12T06:22:52.946Z,89.21
2018-10-12T06:25:21.312Z,89.68
2018-10-12T06:27:49.681Z,89.97
2018-10-12T06:30:18.038Z,89.93
2018-10-12T06:32:46.400Z,89.62
2018-10-12T06:35:14.784Z,89.65
2018-10-12T06:37:43.146Z,89.31
2018-10-12T06:40:11.493Z,88.84
2018-10-12T06:42:39.928Z,88.53
2018-10-12T06:45:08.282Z,88.31
2018-10-12T06:47:36.681Z,87.99
2018-10-12T06:50:05.440Z,87.42
2018-10-12T06:52:34.078Z,86.83
2018-10-12T06:55:02.471Z,86.64
2018-10-12T06:57:30.818Z,87.33
2018-10-12T06:59:59.233Z,87.11
2018-10-12T07:02:27.606Z,86.44
2018-10-12T07:04:56.015Z,85.77
2018-10-12T07:07:24.443Z,85.33
2018-10-12T07:09:52.799Z,85.61
2018-10-12T07:12:21.136Z,84.75
2018-10-12T07:14:49.502Z,84.25
2018-10-12T07:17:17.892Z,84.81
2018-10-12T07:19:46.235Z,83.68
2018-10-12T07:22:14.608Z,83.13
2018-10-12T07:24:42.973Z,83.34
2018-10-12T07:27:11.314Z,83.02
2018-10-12T07:29:39.684Z,83.55
2018-10-12T07:32:08.079Z,82.99
2018-10-12T07:34:36.407Z,82.29
2018-10-12T07:37:04.802Z,81.63
2018-10-12T07:39:33.111Z,81.23
2018-10-12T07:42:01.479Z,80.46
2018-10-12T07:44:29.796Z,81.16
2018-10-12T07:46:58.278Z,80.69
2018-10-12T07:49:26.646Z,80.34
2018-10-12T07:51:55.130Z,79.43
2018-10-12T07:54:23.607Z,79.39
2018-10-12T07:56:52.132Z,79.38
2018-10-12T07:59:20.508Z,78.66
2018-10-12T08:01:49.147Z,78.05
2018-10-12T08:04:17.891Z,78.67
2018-10-12T08:06:46.465Z,77.83
2018-10-12T08:09:15.092Z,76.71
2018-10-12T08:11:43.599Z,75.22
2018-10-12T08:14:12.211Z,74.77
2018-10-12T08:16:40.551Z,73.09
2018-10-12T08:19:11.636Z,71.94
2018-10-12T08:21:40.362Z,71.99
2018-10-12T08:24:09.066Z,70.31
2018-10-12T08:26:37.459Z,70.05
2018-10-12T08:29:06.028Z,68.66
2018-10-12T08:31:34.537Z,69.78
2018-10-12T08:34:02.965Z,69.69
2018-10-12T08:36:32.025Z,69.42
2018-10-12T08:39:00.555Z,69.15
2018-10-12T08:41:28.954Z,69.85
2018-10-12T08:43:57.315Z,68.65
2018-10-12T08:46:26.052Z,67.96
2018-10-12T08:48:54.433Z,68.16
2018-10-12T08:51:22.792Z,69.07
2018-10-12T08:53:51.158Z,66.91
2018-10-12T08:56:19.493Z,68.78
2018-10-12T08:58:47.851Z,68.94
2018-10-12T09:01:16.182Z,68.18
2018-10-12T09:03:44.760Z,68.36
2018-10-12T09:06:13.098Z,68.27
2018-10-12T09:08:41.451Z,69.05
2018-10-12T09:11:09.787Z,68.45
2018-10-12T09:13:38.267Z,68.59
2018-10-12T09:16:07.111Z,68.33
2018-10-12T09:18:35.650Z,66.33
2018-10-12T09:21:04.178Z,67.49
2018-10-12T09:23:32.567Z,67.62
2018-10-12T09:26:00.876Z,68.23
2018-10-12T09:28:29.257Z,68.41
2018-10-12T09:30:57.589Z,67.87
2018-10-12T09:33:26.075Z,67.45
2018-10-12T09:35:54.403Z,66.66
2018-10-12T09:38:22.765Z,64.21
2018-10-12T09:40:51.151Z,65.69
2018-10-12T09:43:19.578Z,66.80
2018-10-12T09:45:47.878Z,65.37
2018-10-12T09:48:16.255Z,65.23
2018-10-12T09:50:44.578Z,65.39
2018-10-12T09:53:13.051Z,65.89
2018-10-12T09:55:41.432Z,65.98
2018-10-12T09:58:09.931Z,66.14
2018-10-12T10:00:43.614Z,66.51
2018-10-12T10:03:17.196Z,65.78
2018-10-12T10:05:45.546Z,66.06
2018-10-12T10:08:13.930Z,66.08
2018-10-12T10:10:42.534Z,66.46
2018-10-12T10:13:10.919Z,65.82
2018-10-12T10:15:39.240Z,65.67
2018-10-12T10:18:07.627Z,64.81
2018-10-12T10:20:35.951Z,64.92
2018-10-12T10:23:04.298Z,64.12
2018-10-12T10:25:32.638Z,62.98
2018-10-12T10:28:00.971Z,63.85
2018-10-12T10:30:29.446Z,63.26
2018-10-12T10:32:57.797Z,63.99
2018-10-12T10:35:26.115Z,63.30
2018-10-12T10:37:54.460Z,61.84
2018-10-12T10:40:43.963Z,61.82
2018-10-12T10:43:13.046Z,61.96
2018-10-12T10:45:41.460Z,61.59
2018-10-12T10:48:16.769Z,61.56
2018-10-12T10:50:45.297Z,60.18
2018-10-12T10:53:13.746Z,61.09
2018-10-12T10:55:42.103Z,61.08
2018-10-12T10:58:10.661Z,61.23
2018-10-12T11:00:41.994Z,60.46
2018-10-12T11:03:10.393Z,60.58
2018-10-12T11:05:38.927Z,60.32
2018-10-12T11:08:07.408Z,59.35
2018-10-12T11:10:35.902Z,59.66
2018-10-12T11:13:04.482Z,59.99
2018-10-12T11:15:32.976Z,59.85
2018-10-12T11:18:01.500Z,60.81
2018-10-12T11:20:29.931Z,59.08
2018-10-12T11:22:59.018Z,58.37
2018-10-12T11:25:27.493Z,58.58
2018-10-12T11:27:55.983Z,59.10
2018-10-12T11:30:24.653Z,58.72
2018-10-12T11:32:53.089Z,58.25
2018-10-12T11:35:21.442Z,58.72
2018-10-12T11:37:50.036Z,59.22
2018-10-12T11:40:18.675Z,57.99
2018-10-12T11:42:58.396Z,57.37
2018-10-12T11:45:26.998Z,58.57
2018-10-12T11:47:55.323Z,58.86
2018-10-12T11:50:23.868Z,58.45
2018-10-12T11:52:52.443Z,58.00
2018-10-12T11:55:20.963Z,57.97
2018-10-12T11:57:49.389Z,59.64
2018-10-12T12:00:17.936Z,58.09
2018-10-12T12:02:46.659Z,58.50
2018-10-12T12:05:15.134Z,57.82
2018-10-12T12:07:43.478Z,56.63
2018-10-12T12:10:12.025Z,56.16
2018-10-12T12:12:40.491Z,57.09
2018-10-12T12:15:09.018Z,55.79
2018-10-12T12:17:37.528Z,55.63
2018-10-12T12:20:06.003Z,55.16
2018-10-12T12:22:34.499Z,53.21
2018-10-12T12:25:02.853Z,54.07
2018-10-12T12:27:31.312Z,54.52
2018-10-12T12:29:59.665Z,54.18
2018-10-12T12:32:28.108Z,54.04
2018-10-12T12:34:56.588Z,54.28
2018-10-12T12:37:25.029Z,53.54
2018-10-12T12:39:53.471Z,53.96
2018-10-12T12:42:21.865Z,55.04
2018-10-12T12:44:50.195Z,54.93
2018-10-12T12:47:18.767Z,55.42
2018-10-12T12:49:47.123Z,55.02
2018-10-12T12:52:15.575Z,55.31
2018-10-12T12:54:43.943Z,54.09
2018-10-12T12:57:12.434Z,54.89
2018-10-12T12:59:40.802Z,55.20
2018-10-12T13:02:09.714Z,55.47
2018-10-12T13:04:38.138Z,54.19
2018-10-12T13:07:06.475Z,54.39
2018-10-12T13:09:34.921Z,54.41
2018-10-12T13:12:03.375Z,53.24
2018-10-12T13:14:31.752Z,53.96
2018-10-12T13:17:00.288Z,55.15
2018-10-12T13:19:28.907Z,54.70
2018-10-12T13:21:57.570Z,54.19
2018-10-12T13:24:26.037Z,54.14
2018-10-12T13:26:54.580Z,54.54
2018-10-12T13:29:22.968Z,52.52
2018-10-12T13:31:51.349Z,54.32
2018-10-12T13:34:19.791Z,53.92
2018-10-12T13:36:48.294Z,52.46
2018-10-12T13:39:16.656Z,53.29
2018-10-12T13:41:45.003Z,52.64
2018-10-12T13:44:13.340Z,52.91
2018-10-12T13:46:41.761Z,53.29
2018-10-12T13:49:10.096Z,53.90
2018-10-12T13:51:38.515Z,54.62
2018-10-12T13:54:06.887Z,53.43
2018-10-12T13:56:35.267Z,54.04
2018-10-12T13:59:03.592Z,53.83
2018-10-12T14:01:32.256Z,54.18
2018-10-12T14:04:00.716Z,54.87
2018-10-12T14:06:29.174Z,54.00
2018-10-12T14:08:57.524Z,54.47
2018-10-12T14:11:25.846Z,54.53
2018-10-12T14:13:54.229Z,53.66
2018-10-12T14:16:22.698Z,53.04
2018-10-12T14:18:51.371Z,53.85
2018-10-12T14:21:22.530Z,53.89
2018-10-12T14:23:50.994Z,54.00
2018-10-12T14:26:19.335Z,54.92
2018-10-12T14:28:47.670Z,54.94
2018-10-12T14:31:16.180Z,55.50
2018-10-12T14:33:44.499Z,55.59
2018-10-12T14:36:12.902Z,54.18
2018-10-12T14:38:41.222Z,54.30
2018-10-12T14:41:09.575Z,54.10
2018-10-12T14:43:37.982Z,52.54
2018-10-12T14:46:06.607Z,54.77
2018-10-12T14:48:36.276Z,54.62
2018-10-12T14:51:04.618Z,55.06
2018-10-12T14:53:33.020Z,55.06
2018-10-12T14:56:01.331Z,54.21
2018-10-12T14:58:29.623Z,54.83
2018-10-12T15:00:57.965Z,55.03
2018-10-12T15:03:26.452Z,54.88
2018-10-12T15:05:54.754Z,55.31
2018-10-12T15:08:23.096Z,55.58
2018-10-12T15:10:51.434Z,55.59
2018-10-12T15:13:19.840Z,55.68
2018-10-12T15:15:48.173Z,55.71
2018-10-12T15:18:16.570Z,54.78
2018-10-12T15:20:44.919Z,55.30
2018-10-12T15:23:13.308Z,56.09
2018-10-12T15:25:41.695Z,55.72
2018-10-12T15:28:10.046Z,56.46
2018-10-12T15:30:38.386Z,56.44
2018-10-12T15:33:06.784Z,56.51
2018-10-12T15:35:35.155Z,56.50
2018-10-12T15:38:03.507Z,58.11
2018-10-12T15:40:31.935Z,58.37
2018-10-12T15:43:00.371Z,59.31
2018-10-12T15:45:28.631Z,59.48
2018-10-12T15:47:56.958Z,59.99
2018-10-12T15:50:25.274Z,60.76
2018-10-12T15:52:54.203Z,61.85
2018-10-12T15:55:22.515Z,61.70
2018-10-12T15:57:50.907Z,63.18
2018-10-12T16:00:19.228Z,64.08
2018-10-12T16:02:47.608Z,62.50
2018-10-12T16:05:15.999Z,62.67
2018-10-12T16:07:44.347Z,63.55
2018-10-12T16:10:12.772Z,63.71
2018-10-12T16:12:41.107Z,64.44
2018-10-12T16:15:09.500Z,65.32
2018-10-12T16:17:37.859Z,65.90
2018-10-12T16:20:06.463Z,66.63
2018-10-12T16:22:34.933Z,67.01
2018-10-12T16:25:14.591Z,67.92
2018-10-12T16:27:42.958Z,68.28
2018-10-12T16:30:11.369Z,69.45
2018-10-12T16:32:39.667Z,70.18
2018-10-12T16:35:08.006Z,70.90
2018-10-12T16:37:36.359Z,70.76
2018-10-12T16:40:04.743Z,71.94
2018-10-12T16:42:33.207Z,72.24
2018-10-12T16:45:01.633Z,72.43
2018-10-12T16:47:30.638Z,73.41
2018-10-12T16:49:59.126Z,73.03
2018-10-12T16:52:27.831Z,73.60
2018-10-12T16:54:56.312Z,74.58
2018-10-12T16:57:31.169Z,74.81
2018-10-12T17:00:00.387Z,74.64
2018-10-12T17:02:28.803Z,74.88
2018-10-12T17:04:57.437Z,75.35
2018-10-12T17:07:26.031Z,75.95
2018-10-12T17:09:55.076Z,75.88
2018-10-12T17:12:23.585Z,76.28
2018-10-12T17:14:51.941Z,76.34
2018-10-12T17:17:20.750Z,76.42
2018-10-12T17:19:49.111Z,76.69
2018-10-12T17:22:18.288Z,76.91
2018-10-12T17:24:49.524Z,77.01
2018-10-12T17:27:24.558Z,77.51
2018-10-12T17:30:00.814Z,77.83
2018-10-12T17:32:31.126Z,77.93
2018-10-12T17:35:02.573Z,77.80
2018-10-12T17:37:32.413Z,78.20
2018-10-12T17:40:01.233Z,78.60
2018-10-12T17:42:33.863Z,78.38
2018-10-12T17:45:03.643Z,78.86
2018-10-12T17:47:32.140Z,79.13
2018-10-12T17:50:03.069Z,78.69
2018-10-12T17:52:31.933Z,79.34
2018-10-12T17:55:04.169Z,79.81
2018-10-12T17:57:34.606Z,79.84
2018-10-12T18:00:06.398Z,79.83
2018-10-12T18:02:35.742Z,79.77
2018-10-12T18:05:07.999Z,80.05
2018-10-12T18:07:39.256Z,80.61
2018-10-12T18:10:10.731Z,80.29
2018-10-12T18:12:41.629Z,80.82
2018-10-12T18:15:24.073Z,81.15
2018-10-12T18:17:52.714Z,80.69
2018-10-12T18:20:28.369Z,80.15
2018-10-12T18:22:59.478Z,81.18
2018-10-12T18:28:11.639Z,82.06
2018-10-12T18:31:05.897Z,82.09
2018-10-12T18:36:34.870Z,81.82
2018-10-12T18:39:03.348Z,82.56
2018-10-12T18:41:31.811Z,82.23
2018-10-12T18:44:00.412Z,82.19
2018-10-12T18:46:29.797Z,82.52
2018-10-12T18:48:58.393Z,82.73
2018-10-12T18:51:28.664Z,82.56
2018-10-12T18:53:57.349Z,83.01
2018-10-12T18:56:25.978Z,82.73
2018-10-12T18:58:54.579Z,82.61
2018-10-12T19:01:23.189Z,82.94
2018-10-12T19:03:51.813Z,82.92
2018-10-12T19:06:20.441Z,82.83
2018-10-12T19:08:49.157Z,82.64
2018-10-12T19:11:18.020Z,82.99
2018-10-12T19:13:46.921Z,83.40
2018-10-12T19:16:15.700Z,83.70
2018-10-12T19:18:44.456Z,83.58
2018-10-12T19:21:12.967Z,83.62
2018-10-12T19:26:34.714Z,83.63
2018-10-12T19:29:03.154Z,83.97
2018-10-12T19:31:31.700Z,83.85
2018-10-12T19:34:00.359Z,84.05
2018-10-12T19:36:28.881Z,84.37
2018-10-12T19:38:57.222Z,84.01
2018-10-12T19:41:25.709Z,84.73
2018-10-12T19:43:54.167Z,84.87
2018-10-12T19:46:22.971Z,84.29
2018-10-12T19:48:51.757Z,84.88
2018-10-12T19:51:21.732Z,84.87
2018-10-12T19:53:50.120Z,84.68
2018-10-12T19:56:18.668Z,84.07
2018-10-12T19:58:47.034Z,84.78
2018-10-12T20:01:15.412Z,85.05
2018-10-12T20:03:43.942Z,85.35
2018-10-12T20:06:12.341Z,85.56
2018-10-12T20:08:42.068Z,85.85
2018-10-12T20:11:10.478Z,85.22
2018-10-12T20:13:38.935Z,85.19
2018-10-12T20:16:07.916Z,84.90
2018-10-12T20:18:36.349Z,85.30
2018-10-12T20:21:07.041Z,85.43
2018-10-12T20:23:35.462Z,85.71
2018-10-12T20:26:03.952Z,85.63
2018-10-12T20:28:32.300Z,85.48
2018-10-12T20:31:00.812Z,85.83
2018-10-12T20:33:29.198Z,86.08
2018-10-12T20:35:57.591Z,85.77
2018-10-12T20:38:26.106Z,85.62
2018-10-12T20:40:54.538Z,85.25
2018-10-12T20:43:23.099Z,86.29
2018-10-12T20:45:51.461Z,86.90
2018-10-12T20:48:19.800Z,87.15
2018-10-12T20:50:48.171Z,87.62
2018-10-12T20:53:17.563Z,87.81
2018-10-12T20:55:45.921Z,87.15
2018-10-12T20:58:15.878Z,86.93
2018-10-12T21:00:45.084Z,87.02
2018-10-12T21:03:14.180Z,86.99
2018-10-12T21:05:43.031Z,87.48
2018-10-12T21:08:11.408Z,86.84
2018-10-12T21:10:39.839Z,86.58
2018-10-12T21:13:08.256Z,86.63
2018-10-12T21:15:36.599Z,87.14
2018-10-12T21:18:05.329Z,87.12
2018-10-12T21:20:33.651Z,86.80
2018-10-12T21:23:02.154Z,87.05
2018-10-12T21:25:30.528Z,87.25
2018-10-12T21:27:59.087Z,86.98
2018-10-12T21:30:27.417Z,86.81
2018-10-12T21:32:55.822Z,87.12
2018-10-12T21:35:24.229Z,86.94
2018-10-12T21:37:52.918Z,86.99
2018-10-12T21:40:21.521Z,87.22
2018-10-12T21:42:49.883Z,87.45
2018-10-12T21:45:18.245Z,87.84
2018-10-12T21:47:47.011Z,87.81
2018-10-12T21:50:15.351Z,88.52
2018-10-12T21:52:43.729Z,89.15
2018-10-12T21:55:12.131Z,88.22
2018-10-12T21:57:40.509Z,88.36
2018-10-12T22:00:09.117Z,87.59
2018-10-12T22:02:37.411Z,87.69
2018-10-12T22:05:05.792Z,88.26
2018-10-12T22:07:34.180Z,88.22
2018-10-12T22:10:02.551Z,89.22
2018-10-12T22:12:30.947Z,89.46
2018-10-12T22:14:59.608Z,89.04
2018-10-12T22:17:27.996Z,88.83
2018-10-12T22:19:56.331Z,88.30
2018-10-12T22:22:24.725Z,88.51
2018-10-12T22:24:53.110Z,88.43
2018-10-12T22:27:21.509Z,88.44
2018-10-12T22:29:49.984Z,88.68
2018-10-12T22:32:18.379Z,89.07
2018-10-12T22:34:46.712Z,89.57
2018-10-12T22:37:15.096Z,89.26
2018-10-12T22:39:44.051Z,88.50
2018-10-12T22:42:13.542Z,88.79
2018-10-12T22:44:41.894Z,89.12
2018-10-12T22:47:10.851Z,89.02
2018-10-12T22:49:39.508Z,89.40
2018-10-12T22:52:07.984Z,89.37
2018-10-12T22:54:36.471Z,89.52
2018-10-12T22:57:04.815Z,89.08
2018-10-12T22:59:33.287Z,89.12
2018-10-12T23:02:01.892Z,88.32
2018-10-12T23:04:30.222Z,88.77
2018-10-12T23:06:58.596Z,88.87
2018-10-12T23:09:26.949Z,88.51
2018-10-12T23:11:55.307Z,88.24
2018-10-12T23:14:23.672Z,89.18
2018-10-12T23:16:51.987Z,89.52
2018-10-12T23:19:20.518Z,89.62
2018-10-12T23:21:48.900Z,89.19
2018-10-12T23:24:17.234Z,89.27
2018-10-12T23:26:45.620Z,90.17
2018-10-12T23:29:13.999Z,90.38
2018-10-12T23:31:42.289Z,89.81
2018-10-12T23:34:10.810Z,89.59
2018-10-12T23:36:39.142Z,89.40
2018-10-12T23:39:08.815Z,89.56
2018-10-12T23:41:37.302Z,89.72
2018-10-12T23:44:19.478Z,89.38
2018-10-12T23:46:47.786Z,89.43
2018-10-12T23:49:16.086Z,89.30
2018-10-12T23:51:44.354Z,89.61
2018-10-12T23:54:12.667Z,89.75
2018-10-12T23:56:40.957Z,89.97
2018-10-12T23:59:09.245Z,90.23
